Time;durP1;ratioP1;P1;durP2;ratioP2;P2;SDS_P1;SDS_P2;PMS_P1;PMS_P2;Temp;Humidity;BMP_temperature;BMP_pressure;BME280_temperature;BME280_humidity;BME280_pressure;Samples;Min_cycle;Max_cycle;Signal;HPM_P1;HPM_P2
2022/05/08 00:02:15;;;;;;;;;;;;;;;10.18;60.44;100876.95;105634;1271;25514;-62
2022/05/08 00:04:45;;;;;;;;;;;;;;;10.17;60.36;100877.29;105599;1271;22518;-62
2022/05/08 00:07:15;;;;;;;;;;;;;;;10.16;60.47;100877.75;105782;1271;24335;-61
2022/05/08 00:09:45;;;;;;;;;;;;;;;10.13;60.51;100875.73;105945;1271;24599;-62
2022/05/08 00:12:15;;;;;;;;;;;;;;;10.10;60.65;100873.96;105877;1271;23415;-61
2022/05/08 00:14:45;;;;;;;;;;;;;;;10.07;60.86;100873.36;105754;1271;22531;-62
2022/05/08 00:17:15;;;;;;;;;;;;;;;10.05;60.81;100871.55;105607;1271;24228;-62
2022/05/08 00:19:45;;;;;;;;;;;;;;;10.02;60.89;100867.84;105712;1271;22811;-61
2022/05/08 00:22:15;;;;;;;;;;;;;;;10.00;60.89;100864.10;105645;1271;22594;-61
2022/05/08 00:24:45;;;;;;;;;;;;;;;9.97;61.00;100860.46;105631;1271;22534;-62
2022/05/08 00:27:15;;;;;;;;;;;;;;;9.95;61.18;100859.13;105664;1271;25222;-62
2022/05/08 00:29:45;;;;;;;;;;;;;;;9.91;61.39;100857.45;105734;1271;25505;-62
2022/05/08 00:32:15;;;;;;;;;;;;;;;9.85;61.47;100859.77;105697;1271;22509;-62
2022/05/08 00:34:45;;;;;;;;;;;;;;;9.78;61.67;100860.11;105691;1271;24255;-61
2022/05/08 00:37:14;;;;;;;;;;;;;;;9.72;62.36;100857.89;105681;1271;22511;-60
2022/05/08 00:39:44;;;;;;;;;;;;;;;9.66;62.44;100861.80;105775;1271;22582;-62
2022/05/08 00:42:14;;;;;;;;;;;;;;;9.59;62.52;100860.09;105633;1271;24214;-60
2022/05/08 00:44:43;;;;;;;;;;;;;;;9.49;62.51;100858.14;105813;1271;24301;-62
2022/05/08 00:47:13;;;;;;;;;;;;;;;9.42;62.61;100859.54;105624;1271;24312;-62
2022/05/08 00:49:43;;;;;;;;;;;;;;;9.38;62.64;100855.48;105828;1271;23679;-62
2022/05/08 00:52:15;;;;;;;;;;;;;;;9.36;62.44;100854.42;105673;1271;24312;-62
2022/05/08 00:54:45;;;;;;;;;;;;;;;9.33;62.70;100855.02;105794;1271;25817;-61
2022/05/08 00:57:15;;;;;;;;;;;;;;;9.25;63.16;100855.17;105639;1271;22608;-60
2022/05/08 00:59:44;;;;;;;;;;;;;;;9.18;63.86;100854.65;105721;1271;22531;-62
2022/05/08 01:02:15;;;;;;;;;;;;;;;9.11;63.48;100854.98;105671;1271;22528;-60
2022/05/08 01:04:45;;;;;;;;;;;;;;;9.07;63.52;100854.42;105596;1270;25516;-61
2022/05/08 01:07:15;;;;;;;;;;;;;;;9.02;64.20;100859.16;105597;1271;22566;-60
2022/05/08 01:09:45;;;;;;;;;;;;;;;8.94;65.16;100857.98;105802;1270;25647;-61
2022/05/08 01:12:15;;;;;;;;;;;;;;;8.87;65.70;100864.70;105631;1271;22529;-60
2022/05/08 01:14:45;;;;;;;;;;;;;;;8.76;65.79;100863.89;105767;1271;22519;-60
2022/05/08 01:17:16;;;;;;;;;;;;;;;8.74;65.10;100861.33;105876;1271;25320;-59
2022/05/08 01:19:47;;;;;;;;;;;;;;;8.76;64.85;100862.23;105739;1271;22507;-60
2022/05/08 01:22:17;;;;;;;;;;;;;;;8.76;64.85;100860.95;105589;1271;25469;-59
2022/05/08 01:24:47;;;;;;;;;;;;;;;8.75;64.92;100860.80;105621;1271;22627;-58
2022/05/08 01:27:17;;;;;;;;;;;;;;;8.71;65.01;100863.13;105641;1271;22706;-60
2022/05/08 01:29:47;;;;;;;;;;;;;;;8.67;65.06;100860.89;105717;1271;25430;-60
2022/05/08 01:32:19;;;;;;;;;;;;;;;8.64;65.49;100863.20;105801;1271;22516;-60
2022/05/08 01:34:48;;;;;;;;;;;;;;;8.63;64.88;100861.72;105768;1271;25204;-61
2022/05/08 01:37:18;;;;;;;;;;;;;;;8.64;65.03;100861.77;105793;1271;22528;-59
2022/05/08 01:39:48;;;;;;;;;;;;;;;8.62;65.22;100864.92;105637;1271;25372;-60
2022/05/08 01:42:18;;;;;;;;;;;;;;;8.59;65.30;100867.14;105901;1271;22526;-59
2022/05/08 01:44:48;;;;;;;;;;;;;;;8.57;65.23;100869.19;105816;1271;22528;-60
2022/05/08 01:50:09;;;;;;;;;;;;;;;8.51;65.16;100862.64;105576;1271;22517;-62
2022/05/08 01:52:39;;;;;;;;;;;;;;;8.50;65.05;100861.55;105903;1270;22665;-60
2022/05/08 01:55:10;;;;;;;;;;;;;;;8.51;65.13;100861.52;105625;1271;24234;-60
2022/05/08 01:57:39;;;;;;;;;;;;;;;8.49;65.34;100863.27;105847;1271;24340;-60
2022/05/08 02:00:11;;;;;;;;;;;;;;;8.42;65.72;100862.23;105684;1271;25474;-59
2022/05/08 02:02:43;;;;;;;;;;;;;;;8.34;65.96;100860.74;105655;1270;25372;-60
2022/05/08 02:05:13;;;;;;;;;;;;;;;8.30;65.97;100862.16;105725;1271;22584;-59
2022/05/08 02:07:45;;;;;;;;;;;;;;;8.26;66.11;100864.77;105811;1270;22513;-61
2022/05/08 02:10:15;;;;;;;;;;;;;;;8.22;65.98;100860.56;105706;1271;22685;-59
2022/05/08 02:12:46;;;;;;;;;;;;;;;8.20;66.21;100862.06;105659;1270;25361;-62
2022/05/08 02:15:16;;;;;;;;;;;;;;;8.18;65.97;100860.39;105663;1271;25417;-60
2022/05/08 02:17:46;;;;;;;;;;;;;;;8.18;65.95;100865.06;105896;1271;24276;-58
2022/05/08 02:20:15;;;;;;;;;;;;;;;8.17;66.07;100862.65;105819;1271;25512;-59
2022/05/08 02:22:45;;;;;;;;;;;;;;;8.17;66.20;100864.07;106183;1271;22589;-60
2022/05/08 02:25:15;;;;;;;;;;;;;;;8.13;66.52;100863.10;105829;1271;22580;-61
2022/05/08 02:27:49;;;;;;;;;;;;;;;8.10;66.74;100864.23;105806;1271;24848;-59
2022/05/08 02:30:19;;;;;;;;;;;;;;;8.05;66.51;100863.02;105914;1271;22575;-58
2022/05/08 02:32:51;;;;;;;;;;;;;;;8.05;66.38;100864.77;105900;1271;22586;-59
2022/05/08 02:35:22;;;;;;;;;;;;;;;8.05;66.24;100860.01;105800;1271;25518;-59
2022/05/08 02:37:53;;;;;;;;;;;;;;;8.06;66.25;100863.02;105940;1271;25439;-60
2022/05/08 02:40:23;;;;;;;;;;;;;;;8.06;66.35;100859.84;105886;1271;22529;-59
2022/05/08 02:42:53;;;;;;;;;;;;;;;8.04;66.54;100863.93;105878;1271;22735;-59
2022/05/08 02:45:24;;;;;;;;;;;;;;;8.01;66.83;100861.91;106130;1271;24469;-59
2022/05/08 02:47:55;;;;;;;;;;;;;;;7.94;66.94;100870.70;105964;1271;24428;-56
2022/05/08 02:50:25;;;;;;;;;;;;;;;7.89;67.64;100874.13;105945;1271;24271;-59
2022/05/08 02:52:56;;;;;;;;;;;;;;;7.83;68.13;100875.83;106010;1271;24247;-59
2022/05/08 03:01:00;;;;;;;;;;;;;;;7.77;67.24;100871.24;105483;1271;22548;-58
2022/05/08 03:03:30;;;;;;;;;;;;;;;7.77;67.26;100875.93;105872;1271;22673;-58
2022/05/08 03:06:00;;;;;;;;;;;;;;;7.75;67.33;100879.43;105566;1271;24340;-58
2022/05/08 03:08:30;;;;;;;;;;;;;;;7.71;67.34;100882.06;105485;1271;22686;-59
2022/05/08 03:13:57;;;;;;;;;;;;;;;7.70;66.89;100883.29;105215;1276;25361;-59
2022/05/08 03:16:28;;;;;;;;;;;;;;;7.71;67.06;100880.33;105344;1276;25232;-59
2022/05/08 03:18:58;;;;;;;;;;;;;;;7.72;66.96;100879.74;105467;1276;25461;-58
2022/05/08 03:21:28;;;;;;;;;;;;;;;7.71;67.19;100882.25;105665;1276;22514;-59
2022/05/08 03:23:58;;;;;;;;;;;;;;;7.68;67.28;100884.64;105399;1276;22685;-57
2022/05/08 03:26:30;;;;;;;;;;;;;;;7.66;67.31;100889.87;105383;1276;27622;-58
2022/05/08 03:28:59;;;;;;;;;;;;;;;7.65;67.09;100890.53;105393;1276;24316;-58
2022/05/08 03:31:30;;;;;;;;;;;;;;;7.64;67.35;100892.63;105396;1276;22531;-58
2022/05/08 03:34:00;;;;;;;;;;;;;;;7.62;67.31;100893.55;105507;1276;25487;-59
2022/05/08 03:36:30;;;;;;;;;;;;;;;7.62;67.27;100888.48;105585;1276;24331;-59
2022/05/08 03:39:00;;;;;;;;;;;;;;;7.60;67.76;100890.45;105471;1276;25522;-59
2022/05/08 03:41:30;;;;;;;;;;;;;;;7.57;67.55;100891.15;105423;1276;25253;-59
2022/05/08 03:43:59;;;;;;;;;;;;;;;7.58;67.55;100893.61;105498;1276;25250;-58
2022/05/08 03:46:30;;;;;;;;;;;;;;;7.57;67.90;100891.33;105367;1276;24294;-58
2022/05/08 03:49:00;;;;;;;;;;;;;;;7.56;68.17;100893.27;105481;1276;24332;-58
2022/05/08 03:51:30;;;;;;;;;;;;;;;7.55;68.13;100893.46;105801;1271;22533;-56
2022/05/08 03:54:02;;;;;;;;;;;;;;;7.55;67.96;100894.08;105671;1271;24308;-56
2022/05/08 03:56:31;;;;;;;;;;;;;;;7.56;68.11;100892.05;105945;1271;25364;-56
2022/05/08 03:59:01;;;;;;;;;;;;;;;7.57;68.32;100893.95;105557;1271;25245;-59
2022/05/08 04:01:31;;;;;;;;;;;;;;;7.57;68.57;100892.60;105608;1271;25236;-58
2022/05/08 04:04:02;;;;;;;;;;;;;;;7.57;68.43;100892.35;105716;1271;22525;-58
2022/05/08 04:06:31;;;;;;;;;;;;;;;7.60;68.74;100897.04;105792;1271;24380;-59
2022/05/08 04:09:01;;;;;;;;;;;;;;;7.62;69.22;100894.83;105769;1271;23473;-59
2022/05/08 04:11:31;;;;;;;;;;;;;;;7.65;69.23;100898.15;105815;1271;22739;-57
2022/05/08 04:14:01;;;;;;;;;;;;;;;7.66;69.62;100900.96;105633;1271;24302;-59
2022/05/08 04:16:30;;;;;;;;;;;;;;;7.70;69.73;100901.89;105652;1271;23526;-58
2022/05/08 04:19:00;;;;;;;;;;;;;;;7.73;69.93;100898.92;105809;1271;24404;-59
2022/05/08 04:21:29;;;;;;;;;;;;;;;7.77;70.40;100895.86;105987;1271;22662;-59
2022/05/08 04:26:47;;;;;;;;;;;;;;;7.86;70.44;100900.26;105594;1271;22519;-56
2022/05/08 04:29:17;;;;;;;;;;;;;;;7.92;70.53;100898.08;105700;1271;22627;-59
2022/05/08 04:31:49;;;;;;;;;;;;;;;7.99;71.02;100898.84;105706;1271;22615;-58
2022/05/08 04:34:19;;;;;;;;;;;;;;;8.06;71.32;100902.41;105642;1271;22556;-59
2022/05/08 04:36:49;;;;;;;;;;;;;;;8.12;71.44;100902.15;105802;1271;25383;-57
2022/05/08 04:39:19;;;;;;;;;;;;;;;8.19;71.75;100899.29;105655;1271;24320;-57
2022/05/08 04:41:49;;;;;;;;;;;;;;;8.27;72.02;100901.21;105646;1271;26521;-57
2022/05/08 04:44:20;;;;;;;;;;;;;;;8.35;72.20;100906.90;105722;1271;25624;-58
2022/05/08 04:46:49;;;;;;;;;;;;;;;8.42;72.55;100908.56;105915;1271;22509;-56
2022/05/08 04:49:19;;;;;;;;;;;;;;;8.51;72.90;100908.52;105673;1271;23018;-57
2022/05/08 04:51:49;;;;;;;;;;;;;;;8.61;73.84;100921.61;105689;1271;22928;-58
2022/05/08 04:54:19;;;;;;;;;;;;;;;8.70;73.90;100919.54;105680;1271;25245;-57
2022/05/08 04:56:48;;;;;;;;;;;;;;;8.78;73.88;100918.36;105916;1271;22512;-58
2022/05/08 04:59:19;;;;;;;;;;;;;;;8.88;74.15;100918.67;105896;1271;22661;-58
2022/05/08 05:01:49;;;;;;;;;;;;;;;8.99;74.80;100928.08;105745;1271;22514;-57
2022/05/08 05:04:19;;;;;;;;;;;;;;;9.11;75.66;100936.10;105647;1271;22525;-56
2022/05/08 05:06:49;;;;;;;;;;;;;;;9.18;74.87;100924.11;105718;1271;22515;-58
2022/05/08 05:09:19;;;;;;;;;;;;;;;9.27;75.30;100935.27;105643;1271;22571;-58
2022/05/08 05:11:49;;;;;;;;;;;;;;;9.35;75.22;100935.35;105728;1271;22518;-59
2022/05/08 05:14:19;;;;;;;;;;;;;;;9.44;75.74;100936.39;105711;1271;24380;-59
2022/05/08 05:16:49;;;;;;;;;;;;;;;9.56;75.78;100937.23;105699;1271;25151;-59
2022/05/08 05:19:19;;;;;;;;;;;;;;;9.69;75.28;100937.42;105601;1273;25233;-59
2022/05/08 05:21:49;;;;;;;;;;;;;;;9.83;75.31;100935.30;105682;1271;26613;-59
2022/05/08 05:24:19;;;;;;;;;;;;;;;10.00;75.37;100936.69;105742;1271;25288;-58
2022/05/08 05:26:48;;;;;;;;;;;;;;;10.13;75.38;100938.67;105713;1271;22583;-59
2022/05/08 05:29:19;;;;;;;;;;;;;;;10.26;75.42;100945.34;106001;1271;22506;-58
2022/05/08 05:31:49;;;;;;;;;;;;;;;10.40;75.35;100944.67;106003;1271;25425;-59
2022/05/08 05:34:19;;;;;;;;;;;;;;;10.55;75.18;100946.19;106129;1271;23952;-59
2022/05/08 05:36:49;;;;;;;;;;;;;;;10.70;74.86;100950.70;106043;1271;24625;-59
2022/05/08 05:39:21;;;;;;;;;;;;;;;10.85;74.97;100951.03;105929;1271;25500;-58
2022/05/08 05:41:58;;;;;;;;;;;;;;;10.99;74.38;100946.88;106041;1271;22512;-59
2022/05/08 05:44:28;;;;;;;;;;;;;;;11.14;74.38;100951.35;105717;1271;22525;-59
2022/05/08 05:49:46;;;;;;;;;;;;;;;11.48;74.21;100950.21;105838;1271;22748;-59
2022/05/08 05:52:16;;;;;;;;;;;;;;;11.64;73.92;100954.55;105855;1271;25248;-57
2022/05/08 05:54:46;;;;;;;;;;;;;;;11.78;73.75;100951.36;105712;1271;25474;-59
2022/05/08 05:57:18;;;;;;;;;;;;;;;11.91;73.30;100953.90;105901;1271;22876;-60
2022/05/08 05:59:48;;;;;;;;;;;;;;;12.04;73.02;100958.69;105537;1271;22755;-59
2022/05/08 06:02:18;;;;;;;;;;;;;;;12.18;72.71;100953.92;105964;1271;25660;-61
2022/05/08 06:04:47;;;;;;;;;;;;;;;12.31;72.62;100952.91;105773;1271;22551;-63
2022/05/08 06:07:17;;;;;;;;;;;;;;;12.46;72.49;100955.04;105770;1271;23088;-63
2022/05/08 06:09:47;;;;;;;;;;;;;;;12.58;72.59;100956.50;105729;1271;24384;-60
2022/05/08 06:12:16;;;;;;;;;;;;;;;12.71;72.13;100949.20;105754;1271;24238;-60
2022/05/08 06:14:47;;;;;;;;;;;;;;;12.84;71.83;100952.71;105869;1271;25484;-61
2022/05/08 06:17:17;;;;;;;;;;;;;;;12.94;71.66;100952.52;106082;1271;22605;-62
2022/05/08 06:19:47;;;;;;;;;;;;;;;13.07;71.72;100953.79;105898;1271;22528;-61
2022/05/08 06:22:16;;;;;;;;;;;;;;;13.19;71.26;100955.30;105762;1271;22524;-63
2022/05/08 06:24:46;;;;;;;;;;;;;;;13.32;71.25;100958.88;105814;1271;22522;-62
2022/05/08 06:27:16;;;;;;;;;;;;;;;13.42;70.65;100961.37;105762;1271;22731;-61
2022/05/08 06:29:46;;;;;;;;;;;;;;;13.50;70.27;100967.27;105912;1271;25478;-62
2022/05/08 06:32:16;;;;;;;;;;;;;;;13.59;70.34;100969.31;105905;1271;25414;-62
2022/05/08 06:34:47;;;;;;;;;;;;;;;13.69;69.97;100972.21;105732;1271;22519;-60
2022/05/08 06:37:17;;;;;;;;;;;;;;;13.81;69.84;100972.58;105762;1271;22788;-62
2022/05/08 06:39:46;;;;;;;;;;;;;;;13.95;69.88;100977.61;105713;1272;25392;-62
2022/05/08 06:42:16;;;;;;;;;;;;;;;14.07;69.36;100975.20;105762;1271;22528;-62
2022/05/08 06:44:45;;;;;;;;;;;;;;;14.16;69.54;100972.30;105845;1271;22556;-62
2022/05/08 06:47:15;;;;;;;;;;;;;;;14.29;69.05;100975.33;105964;1271;23769;-62
2022/05/08 06:49:45;;;;;;;;;;;;;;;14.38;68.66;100982.67;106089;1271;23446;-62
2022/05/08 06:52:15;;;;;;;;;;;;;;;14.49;69.07;100981.58;105862;1271;22537;-62
2022/05/08 06:54:44;;;;;;;;;;;;;;;14.61;68.50;100980.02;105914;1271;25964;-62
2022/05/08 06:57:14;;;;;;;;;;;;;;;14.70;68.32;100979.94;105971;1271;25070;-61
2022/05/08 07:02:31;;;;;;;;;;;;;;;14.91;67.60;100980.54;106096;1271;24234;-62
2022/05/08 07:05:01;;;;;;;;;;;;;;;15.00;67.06;100968.08;105484;1271;24245;-63
2022/05/08 07:07:31;;;;;;;;;;;;;;;15.06;66.91;100974.02;105631;1271;25656;-63
2022/05/08 07:10:01;;;;;;;;;;;;;;;15.13;66.55;100980.10;105831;1271;23331;-60
2022/05/08 07:12:30;;;;;;;;;;;;;;;15.19;66.52;100977.92;106221;1271;22678;-59
2022/05/08 07:15:00;;;;;;;;;;;;;;;15.26;66.67;100971.92;105688;1271;22527;-62
2022/05/08 07:17:30;;;;;;;;;;;;;;;15.37;66.51;100975.32;105561;1273;22515;-62
2022/05/08 07:20:01;;;;;;;;;;;;;;;15.49;65.37;100974.72;105694;1272;24291;-61
2022/05/08 07:22:33;;;;;;;;;;;;;;;15.61;65.03;100979.07;105566;1271;22525;-61
2022/05/08 07:25:02;;;;;;;;;;;;;;;15.71;64.81;100978.21;105807;1271;25458;-62
2022/05/08 07:27:36;;;;;;;;;;;;;;;15.80;63.87;100976.76;105668;1271;25199;-62
2022/05/08 07:30:07;;;;;;;;;;;;;;;15.88;63.51;100974.85;105946;1271;24296;-62
2022/05/08 07:32:36;;;;;;;;;;;;;;;15.98;63.36;100978.00;105786;1271;22563;-62
2022/05/08 07:37:55;;;;;;;;;;;;;;;16.14;62.33;100976.61;105672;1271;25401;-61
2022/05/08 07:40:26;;;;;;;;;;;;;;;16.24;61.94;100978.38;105627;1271;22570;-62
2022/05/08 07:42:56;;;;;;;;;;;;;;;16.34;61.84;100984.23;105694;1271;24234;-62
2022/05/08 07:45:26;;;;;;;;;;;;;;;16.42;61.44;100977.42;106256;1271;22516;-63
2022/05/08 07:47:56;;;;;;;;;;;;;;;16.53;61.10;100977.64;106032;1271;22517;-63
2022/05/08 07:50:26;;;;;;;;;;;;;;;16.66;61.22;100977.77;106121;1270;25418;-63
2022/05/08 07:52:56;;;;;;;;;;;;;;;16.79;60.74;100980.51;105864;1270;27297;-65
2022/05/08 07:55:26;;;;;;;;;;;;;;;16.93;60.70;100980.63;105925;1271;24382;-63
2022/05/08 07:57:56;;;;;;;;;;;;;;;17.05;60.52;100979.52;105993;1271;24294;-63
2022/05/08 08:00:26;;;;;;;;;;;;;;;17.16;60.31;100983.24;105666;1271;25388;-63
2022/05/08 08:02:55;;;;;;;;;;;;;;;17.31;59.73;100979.86;105783;1270;24287;-63
2022/05/08 08:05:25;;;;;;;;;;;;;;;17.44;59.83;100979.55;106127;1270;22995;-63
2022/05/08 08:07:55;;;;;;;;;;;;;;;17.56;59.78;100978.58;106029;1270;22502;-63
2022/05/08 08:10:25;;;;;;;;;;;;;;;17.68;58.92;100980.26;105878;1271;23015;-63
2022/05/08 08:13:00;;;;;;;;;;;;;;;17.81;58.83;100979.81;105796;1271;22515;-63
2022/05/08 08:15:30;;;;;;;;;;;;;;;17.98;58.30;100980.91;105672;1271;22731;-63
2022/05/08 08:17:59;;;;;;;;;;;;;;;18.20;57.77;100979.67;105791;1271;22522;-63
2022/05/08 08:20:29;;;;;;;;;;;;;;;18.39;55.47;100979.10;106085;1271;22599;-61
2022/05/08 08:22:59;;;;;;;;;;;;;;;18.58;55.80;100977.82;105947;1271;22513;-63
2022/05/08 08:25:29;;;;;;;;;;;;;;;18.68;55.17;100982.67;106019;1271;22515;-63
2022/05/08 08:27:59;;;;;;;;;;;;;;;18.75;55.34;100978.44;105855;1271;25439;-63
2022/05/08 08:30:29;;;;;;;;;;;;;;;18.86;55.24;100982.01;106029;1271;22551;-63
2022/05/08 08:32:58;;;;;;;;;;;;;;;18.94;54.71;100983.58;105885;1271;25245;-62
2022/05/08 08:35:28;;;;;;;;;;;;;;;19.01;52.93;100987.36;105904;1271;23453;-63
2022/05/08 08:37:59;;;;;;;;;;;;;;;19.07;53.34;100989.35;105744;1271;23050;-63
2022/05/08 08:40:31;;;;;;;;;;;;;;;19.20;52.77;100988.69;105921;1271;24226;-63
2022/05/08 08:43:01;;;;;;;;;;;;;;;19.31;50.67;100993.17;106143;1270;24442;-62
2022/05/08 08:48:26;;;;;;;;;;;;;;;19.43;49.67;100995.45;105874;1271;24384;-64
2022/05/08 08:50:56;;;;;;;;;;;;;;;19.42;49.46;100999.36;105778;1271;24378;-63
2022/05/08 08:53:27;;;;;;;;;;;;;;;19.42;48.85;100997.05;105850;1271;22507;-63
2022/05/08 08:55:59;;;;;;;;;;;;;;;19.48;48.90;101002.37;106025;1271;24383;-63
2022/05/08 08:58:28;;;;;;;;;;;;;;;19.49;47.90;101002.11;106101;1271;22545;-63
2022/05/08 09:00:58;;;;;;;;;;;;;;;19.48;48.15;101000.10;106096;1271;22524;-64
2022/05/08 09:03:30;;;;;;;;;;;;;;;19.54;48.51;101003.33;106120;1271;22769;-62
2022/05/08 09:06:02;;;;;;;;;;;;;;;19.57;48.57;101002.64;105889;1271;22528;-63
2022/05/08 09:08:33;;;;;;;;;;;;;;;19.60;48.07;101002.83;105864;1271;26517;-63
2022/05/08 09:11:03;;;;;;;;;;;;;;;19.66;47.24;100999.90;105949;1270;24772;-63
2022/05/08 09:13:34;;;;;;;;;;;;;;;19.74;46.96;100997.59;105945;1271;22576;-63
2022/05/08 09:16:04;;;;;;;;;;;;;;;19.84;47.39;101000.71;105945;1271;22526;-63
2022/05/08 09:18:45;;;;;;;;;;;;;;;19.89;46.80;101001.45;105894;1271;24396;-63
2022/05/08 09:24:13;;;;;;;;;;;;;;;19.93;45.55;101003.74;105576;1271;24706;-63
2022/05/08 09:26:44;;;;;;;;;;;;;;;19.93;46.52;101001.88;105488;1271;25663;-63
2022/05/08 09:29:22;;;;;;;;;;;;;;;19.97;46.40;101001.14;105973;1271;22536;-62
2022/05/08 09:31:53;;;;;;;;;;;;;;;20.02;46.48;100998.57;106133;1272;23336;-63
2022/05/08 09:34:23;;;;;;;;;;;;;;;20.08;46.37;100995.48;106150;1271;24249;-63
2022/05/08 09:37:06;;;;;;;;;;;;;;;20.12;46.27;100995.82;106012;1272;22528;-63
2022/05/08 09:39:36;;;;;;;;;;;;;;;20.18;44.34;100998.98;106212;1271;22497;-64
2022/05/08 09:42:07;;;;;;;;;;;;;;;20.20;43.64;101002.48;106170;1271;22572;-63
2022/05/08 09:45:04;;;;;;;;;;;;;;;20.23;44.64;101005.60;102063;1272;5434099;-63
2022/05/08 09:47:42;;;;;;;;;;;;;;;20.27;45.24;101003.50;105867;1271;22670;-63
2022/05/08 09:50:13;;;;;;;;;;;;;;;20.32;45.82;100998.31;105968;1271;23334;-63
2022/05/08 09:52:45;;;;;;;;;;;;;;;20.37;46.46;100999.35;106138;1272;24383;-63
2022/05/08 09:55:15;;;;;;;;;;;;;;;20.43;46.64;100995.32;105890;1271;23943;-63
2022/05/08 09:57:45;;;;;;;;;;;;;;;20.46;46.99;100992.84;106188;1271;24051;-63
2022/05/08 10:00:16;;;;;;;;;;;;;;;20.45;47.57;100993.70;105965;1271;22447;-63
2022/05/08 10:02:46;;;;;;;;;;;;;;;20.45;47.87;100990.20;105816;1272;25315;-63
2022/05/08 10:05:16;;;;;;;;;;;;;;;20.41;47.66;100988.12;105613;1271;23307;-64
2022/05/08 10:07:47;;;;;;;;;;;;;;;20.36;47.58;100996.84;105740;1271;22503;-63
2022/05/08 10:15:51;;;;;;;;;;;;;;;20.11;47.16;100990.73;105651;1271;22587;-63
2022/05/08 10:18:28;;;;;;;;;;;;;;;20.05;47.58;100990.66;106093;1271;24208;-63
2022/05/08 10:21:05;;;;;;;;;;;;;;;20.05;48.01;100988.92;105953;1271;22499;-63
2022/05/08 10:23:41;;;;;;;;;;;;;;;20.09;47.72;100989.05;106538;1262;24368;-52
2022/05/08 10:26:20;;;;;;;;;;;;;;;20.17;47.76;100990.68;105652;1270;25453;-51
2022/05/08 10:29:13;;;;;;;;;;;;;;;20.39;47.79;100990.77;105794;1270;22564;-53
2022/05/08 10:31:44;;;;;;;;;;;;;;;20.67;47.43;100994.01;105425;1276;26684;-52
2022/05/08 10:34:14;;;;;;;;;;;;;;;21.04;47.05;100991.86;105494;1276;22593;-55
2022/05/08 10:37:13;;;;;;;;;;;;;;;21.21;46.14;100993.15;105833;1276;26674;-55
2022/05/08 10:39:43;;;;;;;;;;;;;;;21.58;45.10;100989.15;105470;1276;26726;-54
2022/05/08 10:42:26;;;;;;;;;;;;;;;21.78;45.40;100987.02;105556;1276;22530;-53
2022/05/08 10:44:56;;;;;;;;;;;;;;;21.82;45.42;100986.77;105460;1276;25232;-50
2022/05/08 10:47:43;;;;;;;;;;;;;;;21.77;44.32;100989.56;105485;1276;24305;-50
2022/05/08 10:50:13;;;;;;;;;;;;;;;21.58;43.83;100990.98;105677;1276;25525;-49
2022/05/08 10:52:43;;;;;;;;;;;;;;;21.39;44.05;100988.53;105656;1276;22532;-51
2022/05/08 10:55:14;;;;;;;;;;;;;;;21.27;44.30;100989.52;105661;1276;24005;-51
2022/05/08 10:57:45;;;;;;;;;;;;;;;21.19;44.73;100987.05;105583;1276;22517;-53
2022/05/08 11:00:17;;;;;;;;;;;;;;;21.18;45.07;100983.35;105478;1275;24241;-49
2022/05/08 11:02:48;;;;;;;;;;;;;;;21.20;44.92;100978.97;108671;1275;25337;-53
2022/05/08 11:05:19;;;;;;;;;;;;;;;21.23;44.80;100980.84;105512;1276;22530;-51
2022/05/08 11:07:53;;;;;;;;;;;;;;;21.20;44.91;100978.25;105562;1276;23004;-55
2022/05/08 11:10:25;;;;;;;;;;;;;;;21.20;45.12;100980.95;105941;1270;25273;-50
2022/05/08 11:13:02;;;;;;;;;;;;;;;21.19;44.27;100976.83;105814;1271;22522;-49
2022/05/08 11:15:32;;;;;;;;;;;;;;;21.17;44.44;100972.35;105762;1271;25428;-49
2022/05/08 11:18:09;;;;;;;;;;;;;;;21.23;44.38;100971.97;105988;1271;26285;-53
2022/05/08 11:20:44;;;;;;;;;;;;;;;21.32;44.45;100968.17;105763;1271;26543;-51
2022/05/08 11:23:14;;;;;;;;;;;;;;;21.39;44.34;100968.80;105821;1271;22681;-54
2022/05/08 11:25:46;;;;;;;;;;;;;;;21.32;44.21;100971.13;105716;1273;22537;-51
2022/05/08 11:28:16;;;;;;;;;;;;;;;21.24;44.33;100969.27;105594;1273;22531;-52
2022/05/08 11:30:46;;;;;;;;;;;;;;;21.15;43.61;100973.15;105711;1271;25262;-49
2022/05/08 11:36:07;;;;;;;;;;;;;;;21.22;44.64;100966.10;105579;1271;24713;-50
2022/05/08 11:38:44;;;;;;;;;;;;;;;21.39;45.66;100967.38;105955;1271;22608;-53
2022/05/08 11:41:14;;;;;;;;;;;;;;;21.68;44.71;100966.89;105638;1273;22695;-56
2022/05/08 11:43:44;;;;;;;;;;;;;;;21.90;44.50;100965.04;106479;1271;26492;-55
2022/05/08 11:46:15;;;;;;;;;;;;;;;22.04;43.97;100962.84;106022;1271;22549;-51
2022/05/08 11:48:46;;;;;;;;;;;;;;;22.18;43.51;100963.91;105968;1271;22784;-53
2022/05/08 11:51:18;;;;;;;;;;;;;;;22.41;44.14;100964.58;106490;1271;22737;-53
2022/05/08 11:53:49;;;;;;;;;;;;;;;22.58;43.44;100955.96;105542;1273;24306;-51
2022/05/08 11:56:26;;;;;;;;;;;;;;;22.72;43.97;100954.83;105872;1271;24315;-52
2022/05/08 11:58:56;;;;;;;;;;;;;;;22.97;44.10;100962.39;105524;1273;25425;-53
2022/05/08 12:01:30;;;;;;;;;;;;;;;23.11;43.54;100961.76;105708;1272;22505;-50
2022/05/08 12:04:19;;;;;;;;;;;;;;;23.03;43.39;100961.08;105940;1271;22522;-53
2022/05/08 12:07:00;;;;;;;;;;;;;;;22.86;43.05;100959.83;105591;1272;22592;-49
2022/05/08 12:09:30;;;;;;;;;;;;;;;22.68;43.73;100961.98;106141;1272;22675;-52
2022/05/08 12:12:18;;;;;;;;;;;;;;;22.55;44.12;100962.11;105678;1273;22531;-54
2022/05/08 12:14:48;;;;;;;;;;;;;;;22.45;44.15;100957.99;105706;1272;23256;-49
2022/05/08 12:17:19;;;;;;;;;;;;;;;22.33;43.66;100959.09;105689;1271;22508;-52
2022/05/08 12:19:53;;;;;;;;;;;;;;;22.17;43.28;100962.27;105699;1272;22698;-54
2022/05/08 12:22:24;;;;;;;;;;;;;;;22.03;43.57;100959.26;107946;1272;22525;-54
2022/05/08 12:24:54;;;;;;;;;;;;;;;21.97;44.23;100961.26;106004;1271;24269;-53
2022/05/08 12:27:24;;;;;;;;;;;;;;;21.86;44.31;100964.59;106283;1271;22541;-52
2022/05/08 12:29:54;;;;;;;;;;;;;;;21.75;44.82;100964.63;105807;1271;22960;-53
2022/05/08 12:32:24;;;;;;;;;;;;;;;21.69;44.93;100961.81;105943;1271;26602;-49
2022/05/08 12:34:57;;;;;;;;;;;;;;;21.63;45.21;100959.44;106004;1271;25347;-51
2022/05/08 12:37:27;;;;;;;;;;;;;;;21.55;44.62;100962.54;105862;1271;24312;-51
2022/05/08 12:39:56;;;;;;;;;;;;;;;21.44;45.03;100962.95;105969;1270;24303;-53
2022/05/08 12:42:26;;;;;;;;;;;;;;;21.38;45.21;100960.71;105705;1271;22509;-51
2022/05/08 12:44:56;;;;;;;;;;;;;;;21.37;45.16;100957.44;105725;1271;27538;-54
2022/05/08 12:47:26;;;;;;;;;;;;;;;21.45;45.53;100961.81;105903;1270;24218;-50
2022/05/08 12:49:55;;;;;;;;;;;;;;;21.53;45.19;100964.33;105852;1270;22502;-55
2022/05/08 12:52:25;;;;;;;;;;;;;;;21.59;45.14;100966.36;105690;1270;24421;-49
2022/05/08 12:54:55;;;;;;;;;;;;;;;21.61;44.92;100963.22;105766;1271;22523;-53
2022/05/08 13:00:13;;;;;;;;;;;;;;;21.61;45.21;100959.66;105554;1271;22656;-52
2022/05/08 13:02:43;;;;;;;;;;;;;;;21.64;45.16;100957.08;105868;1271;25375;-53
2022/05/08 13:05:12;;;;;;;;;;;;;;;21.67;44.93;100962.73;106166;1271;25334;-55
2022/05/08 13:07:42;;;;;;;;;;;;;;;21.62;44.93;100957.83;105978;1271;22528;-49
2022/05/08 13:10:12;;;;;;;;;;;;;;;21.59;45.18;100953.75;105866;1271;22513;-53
2022/05/08 13:12:42;;;;;;;;;;;;;;;21.54;45.58;100956.61;105972;1270;25219;-51
2022/05/08 13:15:12;;;;;;;;;;;;;;;21.48;45.62;100960.42;105933;1270;22528;-52
2022/05/08 13:17:42;;;;;;;;;;;;;;;21.41;45.68;100957.67;105899;1270;22530;-54
2022/05/08 13:20:12;;;;;;;;;;;;;;;21.39;45.87;100954.15;105771;1271;22521;-52
2022/05/08 13:22:42;;;;;;;;;;;;;;;21.40;46.02;100954.14;105702;1271;22530;-49
2022/05/08 13:25:12;;;;;;;;;;;;;;;21.45;46.05;100952.45;106256;1271;25259;-52
2022/05/08 13:27:43;;;;;;;;;;;;;;;21.54;45.75;100954.77;106055;1271;22576;-52
2022/05/08 13:30:14;;;;;;;;;;;;;;;21.57;45.84;100957.45;105665;1271;22511;-50